Privateer — WYZ7447 — position and weather

sailwx.info

Track history (hours):
 
Tides and Currents Weather Stations Pressure Air Temp Water Temp Dewpoint Dewpoint Depression Visibility Wind Speed Wind Dir Waves Ship Positions

Privateer

Owner: SEVEN SEAS WHALE WATCH, GLOUCESTER, MA. More information available from US FCC via Universal Licensing System and Coast Guard Vessel Documentation Center.

Last reported at 2017-Oct-19 19:50 UTC. Time now 2017-Oct-20 05:24 UTC.
Position N 32°46' W 117°19'.

Length 20 m.

Type: Passenger vessel. MMSI: 367453620.

Date/timePositionNaut miles runAvg speedWind from/ knotsBaromVisibWave heightAir tempDewpointWater temp
2017-Oct-19 19:50N 32°46' W 117°19'411.3
2017-Oct-19 19:30N 32°48' W 117°23'5 8.7
2017-Oct-19 18:59N 32°49' W 117°28'2 2.3
2017-Oct-19 18:09N 32°49' W 117°26'210.3
2017-Oct-19 18:00N 32°48' W 117°24'5 0.1
2017-Oct-17 19:27N 32°47' W 117°18'4 9.3
2017-Oct-17 19:00N 32°49' W 117°23'3 5.6
2017-Oct-17 18:30N 32°46' W 117°23'0 0.9
2017-Oct-17 17:59N 32°46' W 117°23'5 0.1
2017-Oct-15 18:54N 32°42' W 117°26'4 9.0
2017-Oct-15 18:30N 32°44' W 117°29'5 9.8
2017-Oct-15 18:00N 32°45' W 117°23'8 0.4
2017-Oct-14 23:53N 32°46' W 117°14'3 8.1
2017-Oct-14 23:28N 32°44' W 117°18'511.8
2017-Oct-14 23:00N 32°41' W 117°23'4 8.6
2017-Oct-14 22:30N 32°40' W 117°28'2 3.4
2017-Oct-14 22:00N 32°39' W 117°29'510.1
2017-Oct-14 21:30N 32°41' W 117°24'9 5.2
2017-Oct-14 19:42N 32°46' W 117°14'2 7.4
2017-Oct-14 19:29N 32°45' W 117°16'510.9
2017-Oct-14 19:00N 32°42' W 117°21'510.6
2017-Oct-14 18:30N 32°40' W 117°27'2 4.9
2017-Oct-14 17:59N 32°41' W 117°25'511.1
2017-Oct-14 17:30N 32°44' W 117°19'4 0.2
2017-Oct-13 19:50N 32°46' W 117°14'3 7.6
2017-Oct-13 19:30N 32°46' W 117°17'510.5
2017-Oct-13 19:00N 32°49' W 117°23'3 6.0
2017-Oct-13 18:30N 32°49' W 117°26'3 5.7
2017-Oct-13 18:00N 32°47' W 117°23'4 7.9
2017-Oct-13 17:30N 32°46' W 117°19'3 0.2
2017-Oct-12 19:48N 32°46' W 117°14'3 8.8
2017-Oct-12 19:28N 32°45' W 117°18'510.2
2017-Oct-12 19:00N 32°45' W 117°24'2 4.0
2017-Oct-12 18:30N 32°45' W 117°26'3 7.0
2017-Oct-12 18:00N 32°44' W 117°22'6 0.2
2017-Oct-10 23:22N 32°46' W 117°15'3 7.9
2017-Oct-10 22:59N 32°46' W 117°18'510.6
2017-Oct-10 22:30N 32°51' W 117°18'3 6.8
2017-Oct-10 22:00N 32°54' W 117°19'4 7.3
2017-Oct-10 21:30N 32°51' W 117°21'5 9.5
2017-Oct-10 21:00N 32°47' W 117°18'4 3.8
2017-Oct-10 20:05N 32°46' W 117°14'1 6.0
2017-Oct-10 19:58N 32°45' W 117°15'3 6.1
2017-Oct-10 19:30N 32°46' W 117°18'510.1
2017-Oct-10 19:00N 32°50' W 117°22'4 7.9
2017-Oct-10 18:30N 32°47' W 117°25'2 4.0
2017-Oct-10 18:00N 32°47' W 117°23'4 8.8
2017-Oct-10 17:30N 32°45' W 117°18'3 0.1
2017-Oct-09 20:02N 32°46' W 117°15'0 8.2
2017-Oct-09 19:59N 32°45' W 117°15'  
Track history (hours):
 
Tides and Currents Weather Stations Pressure Air Temp Water Temp Dewpoint Dewpoint Depression Visibility Wind Speed Wind Dir Waves Ship Positions

Privateer

Owner: SEVEN SEAS WHALE WATCH, GLOUCESTER, MA. More information available from US FCC via Universal Licensing System and Coast Guard Vessel Documentation Center.

Last reported at 2017-Oct-19 19:50 UTC. Time now 2017-Oct-20 05:24 UTC.
Position N 32°46' W 117°19'.

Length 20 m.

Type: Passenger vessel. MMSI: 367453620.

Date/timePositionNaut miles runAvg speedWind from/ knotsBaromVisibWave heightAir tempDewpointWater temp
2017-Oct-19 19:50N 32°46' W 117°19'411.3
2017-Oct-19 19:30N 32°48' W 117°23'5 8.7
2017-Oct-19 18:59N 32°49' W 117°28'2 2.3
2017-Oct-19 18:09N 32°49' W 117°26'210.3
2017-Oct-19 18:00N 32°48' W 117°24'5 0.1
2017-Oct-17 19:27N 32°47' W 117°18'4 9.3
2017-Oct-17 19:00N 32°49' W 117°23'3 5.6
2017-Oct-17 18:30N 32°46' W 117°23'0 0.9
2017-Oct-17 17:59N 32°46' W 117°23'5 0.1
2017-Oct-15 18:54N 32°42' W 117°26'4 9.0
2017-Oct-15 18:30N 32°44' W 117°29'5 9.8
2017-Oct-15 18:00N 32°45' W 117°23'8 0.4
2017-Oct-14 23:53N 32°46' W 117°14'3 8.1
2017-Oct-14 23:28N 32°44' W 117°18'511.8
2017-Oct-14 23:00N 32°41' W 117°23'4 8.6
2017-Oct-14 22:30N 32°40' W 117°28'2 3.4
2017-Oct-14 22:00N 32°39' W 117°29'510.1
2017-Oct-14 21:30N 32°41' W 117°24'9 5.2
2017-Oct-14 19:42N 32°46' W 117°14'2 7.4
2017-Oct-14 19:29N 32°45' W 117°16'510.9
2017-Oct-14 19:00N 32°42' W 117°21'510.6
2017-Oct-14 18:30N 32°40' W 117°27'2 4.9
2017-Oct-14 17:59N 32°41' W 117°25'511.1
2017-Oct-14 17:30N 32°44' W 117°19'4 0.2
2017-Oct-13 19:50N 32°46' W 117°14'3 7.6
2017-Oct-13 19:30N 32°46' W 117°17'510.5
2017-Oct-13 19:00N 32°49' W 117°23'3 6.0
2017-Oct-13 18:30N 32°49' W 117°26'3 5.7
2017-Oct-13 18:00N 32°47' W 117°23'4 7.9
2017-Oct-13 17:30N 32°46' W 117°19'3 0.2
2017-Oct-12 19:48N 32°46' W 117°14'3 8.8
2017-Oct-12 19:28N 32°45' W 117°18'510.2
2017-Oct-12 19:00N 32°45' W 117°24'2 4.0
2017-Oct-12 18:30N 32°45' W 117°26'3 7.0
2017-Oct-12 18:00N 32°44' W 117°22'6 0.2
2017-Oct-10 23:22N 32°46' W 117°15'3 7.9
2017-Oct-10 22:59N 32°46' W 117°18'510.6
2017-Oct-10 22:30N 32°51' W 117°18'3 6.8
2017-Oct-10 22:00N 32°54' W 117°19'4 7.3
2017-Oct-10 21:30N 32°51' W 117°21'5 9.5
2017-Oct-10 21:00N 32°47' W 117°18'4 3.8
2017-Oct-10 20:05N 32°46' W 117°14'1 6.0
2017-Oct-10 19:58N 32°45' W 117°15'3 6.1
2017-Oct-10 19:30N 32°46' W 117°18'510.1
2017-Oct-10 19:00N 32°50' W 117°22'4 7.9
2017-Oct-10 18:30N 32°47' W 117°25'2 4.0
2017-Oct-10 18:00N 32°47' W 117°23'4 8.8
2017-Oct-10 17:30N 32°45' W 117°18'3 0.1
2017-Oct-09 20:02N 32°46' W 117°15'0 8.2
2017-Oct-09 19:59N 32°45' W 117°15'  

Dump ship's entire track history